Time;durP1;ratioP1;P1;durP2;ratioP2;P2;SDS_P1;SDS_P2;PMS_P1;PMS_P2;Temp;Humidity;BMP_temperature;BMP_pressure;BME280_temperature;BME280_humidity;BME280_pressure;Samples;Min_cycle;Max_cycle;Signal;HPM_P1;HPM_P2
2022/04/21 00:00:35;;;;;;;;;14.25;12.00;;;;;13.64;37.50;98038.38;4850564;28;103450;-80
2022/04/21 00:03:02;;;;;;;;;14.25;11.75;;;;;13.64;38.02;98038.38;4865317;28;104074;-80
2022/04/21 00:05:29;;;;;;;;;14.50;12.00;;;;;13.64;38.03;98035.66;4851131;28;104132;-80
2022/04/21 00:07:56;;;;;;;;;15.75;13.50;;;;;13.64;37.56;98032.94;4845515;28;103043;-81
2022/04/21 00:10:23;;;;;;;;;10.00;10.00;;;;;13.63;38.31;98029.41;4846078;28;102432;-80
2022/04/21 00:12:51;;;;;;;;;13.00;12.50;;;;;13.63;37.60;98031.28;4861325;28;104235;-80
2022/04/21 00:15:18;;;;;;;;;12.25;11.00;;;;;13.63;37.56;98031.28;4862345;28;103215;-80
2022/04/21 00:29:10;;;;;;;;;19.75;15.25;;;;;13.60;38.35;98026.31;4896364;23;104110;-64
2022/04/21 00:31:37;;;;;;;;;12.00;12.00;;;;;13.59;38.33;98030.94;4856528;28;102462;-63
2022/04/21 00:34:04;;;;;;;;;18.50;15.75;;;;;13.59;38.19;98036.38;4856470;28;102445;-63
2022/04/21 00:36:31;;;;;;;;;14.50;13.00;;;;;13.57;38.27;98037.63;4880163;23;104566;-64
2022/04/21 00:38:58;;;;;;;;;15.25;14.75;;;;;13.57;38.77;98034.94;4874479;28;102359;-65
2022/04/21 00:41:25;;;;;;;;;17.25;15.00;;;;;13.58;38.09;98042.03;4875491;28;102110;-65
2022/04/21 00:43:52;;;;;;;;;16.00;14.00;;;;;13.57;38.76;98043.06;4873906;28;102238;-64
2022/04/21 00:46:20;;;;;;;;;18.00;14.75;;;;;13.54;38.19;98027.25;4868365;28;103236;-65
2022/04/21 00:48:47;;;;;;;;;17.25;14.00;;;;;13.58;38.14;98045.56;4910599;23;103257;-68
2022/04/21 00:51:14;;;;;;;;;17.00;13.75;;;;;13.59;38.25;98035.53;4837520;29;102505;-68
2022/04/21 00:53:41;;;;;;;;;19.25;15.25;;;;;13.58;38.34;98034.69;4839045;29;102970;-68
2022/04/21 00:56:08;;;;;;;;;18.25;16.00;;;;;13.59;38.17;98030.94;4822214;29;104035;-68
2022/04/21 00:58:36;;;;;;;;;16.50;15.50;;;;;13.61;37.49;98033.38;4843391;28;102991;-67
2022/04/21 01:01:03;;;;;;;;;16.25;16.00;;;;;13.61;37.61;98033.38;4837086;29;102052;-67
2022/04/21 01:03:30;;;;;;;;;15.25;14.25;;;;;13.61;37.48;98039.66;4839961;29;102442;-67
2022/04/21 01:05:57;;;;;;;;;17.50;14.50;;;;;13.62;38.70;98037.78;4811941;29;103955;-68
2022/04/21 01:08:24;;;;;;;;;16.00;13.75;;;;;13.62;37.69;98032.34;4837672;29;102032;-67
2022/04/21 01:10:51;;;;;;;;;17.75;16.00;;;;;13.61;37.79;98036.09;4838099;29;102492;-68
2022/04/21 01:13:18;;;;;;;;;16.00;15.75;;;;;13.61;38.57;98044.25;4838871;29;102357;-68
2022/04/21 01:15:45;;;;;;;;;17.00;15.50;;;;;13.61;38.56;98046.97;4806611;29;104134;-68
2022/04/21 01:18:12;;;;;;;;;18.50;15.00;;;;;13.62;38.53;98051.34;4837768;29;102173;-68
2022/04/21 01:20:39;;;;;;;;;14.75;14.75;;;;;13.61;38.35;98041.53;4837357;29;102307;-68
2022/04/21 01:23:06;;;;;;;;;20.00;18.00;;;;;13.61;37.59;98049.69;4838765;29;102180;-68
2022/04/21 01:25:39;;;;;;;;;19.00;15.50;;;;;13.61;37.89;98045.09;4838859;29;104050;-68
2022/04/21 01:28:07;;;;;;;;;16.50;16.00;;;;;13.61;38.06;98038.81;4836977;29;102181;-68
2022/04/21 01:30:34;;;;;;;;;8.25;7.75;;;;;13.60;37.68;98043.44;4837306;29;102068;-68
2022/04/21 01:33:01;;;;;;;;;13.25;10.00;;;;;13.60;38.03;98038.00;4839948;29;103595;-67
2022/04/21 01:35:28;;;;;;;;;21.25;17.25;;;;;13.63;38.50;98042.16;4837553;29;104432;-68
2022/04/21 01:43:26;;;;;;;;;16.25;15.75;;;;;13.64;38.41;98038.38;4836827;29;102427;-68
2022/04/21 01:45:53;;;;;;;;;19.75;16.00;;;;;13.63;38.38;98026.69;4836091;29;104337;-69
2022/04/21 01:48:20;;;;;;;;;19.00;16.50;;;;;13.63;37.36;98020.41;4837749;29;102271;-67
2022/04/21 01:50:46;;;;;;;;;17.25;15.00;;;;;13.61;38.52;98026.06;4848158;28;102478;-68
2022/04/21 01:53:13;;;;;;;;;21.00;17.75;;;;;13.62;38.31;98026.91;4837807;29;102107;-68
2022/04/21 01:55:40;;;;;;;;;17.00;16.00;;;;;13.62;38.00;98024.19;4837173;29;104070;-68
2022/04/21 01:58:08;;;;;;;;;17.00;14.00;;;;;13.62;38.35;98026.91;4834818;29;102221;-68
2022/04/21 02:00:34;;;;;;;;;14.25;12.25;;;;;13.62;37.58;98018.75;4836311;29;103056;-68
2022/04/21 02:03:02;;;;;;;;;18.25;15.00;;;;;13.61;38.26;98022.53;4834548;29;103027;-68
2022/04/21 02:05:29;;;;;;;;;17.50;16.00;;;;;13.59;38.05;98019.22;4837474;29;104091;-68
2022/04/21 02:07:56;;;;;;;;;19.50;16.50;;;;;13.52;38.29;98010.34;4839002;29;102328;-68
2022/04/21 02:10:23;;;;;;;;;17.75;16.00;;;;;13.63;37.68;98020.41;4835055;29;102317;-68
2022/04/21 02:12:50;;;;;;;;;17.50;16.00;;;;;13.66;37.83;98009.06;4838190;29;102349;-68
2022/04/21 02:15:19;;;;;;;;;19.75;16.75;;;;;13.47;37.51;97983.88;4834373;29;105378;-68
2022/04/21 02:17:46;;;;;;;;;17.75;15.75;;;;;13.71;37.28;98022.78;4836171;29;102200;-68
2022/04/21 02:20:16;;;;;;;;;18.25;15.25;;;;;13.75;37.53;98024.78;4837298;29;102136;-68
2022/04/21 02:22:44;;;;;;;;;16.75;15.25;;;;;13.80;38.00;98026.81;4837750;29;102531;-68
2022/04/21 02:25:15;;;;;;;;;15.00;14.75;;;;;13.83;37.28;98020.88;4837355;29;104082;-68
2022/04/21 02:27:44;;;;;;;;;14.00;13.50;;;;;13.87;38.03;98030.22;4837204;29;102436;-68
2022/04/21 02:30:12;;;;;;;;;14.25;13.25;;;;;13.90;37.81;98021.63;4832835;29;102179;-68
2022/04/21 02:32:40;;;;;;;;;17.25;16.00;;;;;13.93;37.24;98028.44;4837284;29;102312;-68
2022/04/21 02:35:07;;;;;;;;;17.25;17.00;;;;;13.65;37.46;97974.81;4836911;29;104183;-68
2022/04/21 02:37:36;;;;;;;;;15.00;14.50;;;;;13.98;37.73;98020.41;4821268;29;103611;-68
2022/04/21 02:40:04;;;;;;;;;20.00;15.75;;;;;13.99;37.26;98009.31;4832742;29;102820;-68
2022/04/21 02:42:31;;;;;;;;;20.00;16.50;;;;;14.01;37.24;98018.06;4837864;29;102174;-68
2022/04/21 02:44:58;;;;;;;;;17.25;15.25;;;;;14.01;37.32;98012.63;4835359;29;104083;-68
2022/04/21 02:47:25;;;;;;;;;18.50;15.00;;;;;14.03;37.90;98015.09;4835769;29;103233;-68
2022/04/21 02:49:52;;;;;;;;;15.75;14.75;;;;;14.04;37.52;98017.59;4833929;29;102211;-68
2022/04/21 02:52:19;;;;;;;;;19.00;16.75;;;;;14.05;37.05;98013.78;4837384;29;102203;-68
2022/04/21 02:57:32;;;;;;;;;16.25;15.25;;;;;14.04;37.28;98006.72;4836889;29;102541;-68
2022/04/21 03:00:00;;;;;;;;;15.25;13.50;;;;;14.08;37.60;98016.06;4819945;29;103067;-68
2022/04/21 03:02:27;;;;;;;;;16.00;16.00;;;;;14.08;37.96;98018.78;4826948;29;103801;-68
2022/04/21 03:04:54;;;;;;;;;17.50;14.75;;;;;14.07;37.89;98019.84;4838006;29;103893;-68
2022/04/21 03:07:22;;;;;;;;;16.50;16.00;;;;;14.09;37.78;98019.59;4837078;29;102416;-67
2022/04/21 03:09:55;;;;;;;;;19.75;16.00;;;;;14.09;37.43;98009.56;4836636;29;102008;-68
2022/04/21 03:12:23;;;;;;;;;17.25;14.50;;;;;14.07;37.22;98003.53;4834453;29;102921;-68
2022/04/21 03:14:49;;;;;;;;;17.75;14.75;;;;;14.12;37.20;97997.38;4815659;29;104224;-67
2022/04/21 03:17:16;;;;;;;;;12.25;11.00;;;;;14.10;37.62;98000.31;4835950;29;102366;-68
2022/04/21 03:19:43;;;;;;;;;16.00;15.25;;;;;14.10;37.87;98011.19;4819406;29;102469;-68
2022/04/21 03:25:03;;;;;;;;;17.50;16.50;;;;;14.10;37.83;98004.91;4833878;29;104478;-67
2022/04/21 03:27:31;;;;;;;;;18.00;15.50;;;;;14.09;37.05;98006.84;4837167;29;103569;-68
2022/04/21 03:30:03;;;;;;;;;17.75;16.75;;;;;14.11;37.39;98007.41;4832396;29;103448;-68
2022/04/21 03:32:29;;;;;;;;;18.50;18.00;;;;;14.10;37.95;97994.03;4841832;29;102419;-68
2022/04/21 03:34:59;;;;;;;;;16.00;15.00;;;;;14.08;37.87;97991.59;4836263;29;104056;-68
2022/04/21 03:37:26;;;;;;;;;19.75;17.00;;;;;14.09;37.42;97995.97;4834322;29;102348;-68
2022/04/21 03:39:53;;;;;;;;;18.00;16.50;;;;;14.09;37.21;97986.97;4834544;29;102295;-68
2022/04/21 03:42:31;;;;;;;;;17.00;15.50;;;;;14.09;37.09;98006.84;4820155;29;103755;-68
2022/04/21 03:44:59;;;;;;;;;16.25;15.00;;;;;14.08;37.41;97996.19;4834085;29;104068;-68
2022/04/21 03:47:26;;;;;;;;;18.25;16.25;;;;;14.08;37.40;97998.91;4834799;29;102096;-68
2022/04/21 03:49:53;;;;;;;;;21.00;17.25;;;;;14.07;37.68;98003.53;4833787;29;102400;-68
2022/04/21 03:52:20;;;;;;;;;16.75;16.00;;;;;14.04;37.17;98004.00;4830577;29;103977;-68
2022/04/21 03:54:47;;;;;;;;;18.00;16.00;;;;;14.05;37.90;98010.28;4835092;29;102786;-67
2022/04/21 03:57:14;;;;;;;;;20.00;17.50;;;;;14.03;37.90;98018.66;4836025;29;102300;-68
2022/04/21 03:59:41;;;;;;;;;17.00;15.50;;;;;14.01;37.11;98018.06;4835192;29;103976;-67
2022/04/21 04:02:08;;;;;;;;;12.75;12.25;;;;;14.01;36.93;98009.91;4835770;29;102129;-68
2022/04/21 04:04:36;;;;;;;;;17.50;16.00;;;;;14.02;37.56;98006.13;4835343;29;103937;-68
2022/04/21 04:12:35;;;;;;;;;20.25;19.00;;;;;14.00;38.05;98010.97;4834968;29;102374;-68
2022/04/21 04:15:03;;;;;;;;;18.25;17.25;;;;;13.98;37.36;98018.53;4833999;29;104500;-68
2022/04/21 04:17:31;;;;;;;;;16.25;15.25;;;;;13.95;37.59;98024.44;4835618;29;103843;-68
2022/04/21 04:19:59;;;;;;;;;20.00;17.25;;;;;13.98;37.92;98023.13;4835809;29;102419;-68
2022/04/21 04:22:26;;;;;;;;;11.75;10.00;;;;;14.01;37.20;98025.38;4833642;29;102410;-68
2022/04/21 04:24:56;;;;;;;;;21.75;17.75;;;;;14.02;37.01;98033.31;4835161;29;104060;-68
2022/04/21 04:27:24;;;;;;;;;23.50;17.75;;;;;14.04;37.25;98027.63;4835042;29;102148;-68
2022/04/21 04:29:51;;;;;;;;;16.00;16.00;;;;;14.05;37.62;98037.47;4831046;29;102413;-67
2022/04/21 04:32:18;;;;;;;;;17.75;16.00;;;;;14.03;39.24;98039.56;4818619;29;102324;-68
2022/04/21 04:34:45;;;;;;;;;16.25;14.75;;;;;14.05;38.14;98027.38;4835584;29;104044;-68
2022/04/21 04:37:12;;;;;;;;;18.75;17.00;;;;;14.08;38.02;98024.22;4817772;29;102368;-67
2022/04/21 04:39:39;;;;;;;;;17.00;16.00;;;;;14.11;37.43;98017.47;4832201;29;102291;-68
2022/04/21 04:42:24;;;;;;;;;20.25;17.25;;;;;14.14;38.08;98025.97;4833670;29;102225;-68
2022/04/21 04:47:38;;;;;;;;;16.00;16.00;;;;;14.21;37.79;98029.41;4833339;29;103737;-68
2022/04/21 04:50:06;;;;;;;;;20.25;20.00;;;;;14.25;37.92;98025.13;4834446;29;102329;-68
2022/04/21 04:52:33;;;;;;;;;16.75;16.00;;;;;14.26;37.86;98029.50;4834930;29;103595;-68
2022/04/21 04:55:00;;;;;;;;;17.25;15.75;;;;;14.29;37.91;98026.31;4834978;29;104011;-67
2022/04/21 04:57:27;;;;;;;;;18.50;16.50;;;;;14.32;37.44;98035.06;4835782;29;102123;-68
2022/04/21 05:00:00;;;;;;;;;17.00;15.00;;;;;14.34;37.39;98027.47;4831906;29;102303;-67
2022/04/21 05:02:27;;;;;;;;;16.25;15.50;;;;;14.36;37.69;98022.69;4836830;29;102320;-68
2022/04/21 05:04:54;;;;;;;;;18.00;15.50;;;;;14.38;37.17;98015.09;4834279;29;104433;-68
2022/04/21 05:07:21;;;;;;;;;18.00;17.25;;;;;14.39;37.92;98017.56;4834849;29;102116;-68
2022/04/21 05:09:48;;;;;;;;;21.00;17.00;;;;;14.42;37.00;98021.69;4830906;29;102342;-67
2022/04/21 05:12:15;;;;;;;;;16.75;14.75;;;;;14.42;37.20;98016.25;4836189;29;101988;-68
2022/04/21 05:14:41;;;;;;;;;15.75;15.25;;;;;14.45;37.92;98018.53;4835453;29;104052;-68
2022/04/21 05:17:08;;;;;;;;;16.00;14.25;;;;;14.45;37.22;98013.91;4836872;29;102526;-68
2022/04/21 05:19:35;;;;;;;;;16.25;15.50;;;;;14.47;37.54;98013.66;4839490;29;102521;-68
2022/04/21 05:22:03;;;;;;;;;17.25;15.25;;;;;14.48;37.42;98018.03;4840443;29;102214;-68
2022/04/21 05:24:31;;;;;;;;;17.00;16.00;;;;;14.51;36.89;98022.97;4838189;29;103670;-68
2022/04/21 05:26:58;;;;;;;;;20.25;17.25;;;;;14.53;37.23;98020.84;4839597;29;102637;-68
2022/04/21 05:32:12;;;;;;;;;15.75;13.75;;;;;14.55;37.40;98019.53;4838481;29;102902;-68
2022/04/21 05:34:39;;;;;;;;;16.25;15.00;;;;;14.56;36.91;98023.91;4830718;29;104096;-68
2022/04/21 05:37:06;;;;;;;;;17.50;15.50;;;;;14.58;36.98;98020.97;4835929;29;102205;-68
2022/04/21 05:39:34;;;;;;;;;18.25;13.00;;;;;14.59;37.45;98023.44;4838496;29;102134;-68
2022/04/21 05:42:02;;;;;;;;;19.75;15.50;;;;;14.61;36.85;98031.34;4840354;29;102390;-68
2022/04/21 05:44:29;;;;;;;;;17.75;15.75;;;;;14.61;37.03;98023.19;4839014;29;104130;-68
2022/04/21 05:46:57;;;;;;;;;17.00;14.50;;;;;14.62;37.52;98028.41;4838492;29;102038;-68
2022/04/21 05:49:24;;;;;;;;;18.75;15.75;;;;;14.64;37.42;98031.69;4838382;29;102418;-68
2022/04/21 05:51:52;;;;;;;;;19.50;17.00;;;;;14.67;37.03;98024.97;4839249;29;103401;-68
2022/04/21 05:54:20;;;;;;;;;22.00;19.75;;;;;14.69;37.39;98028.25;4838570;29;104112;-68
2022/04/21 05:56:47;;;;;;;;;14.00;13.00;;;;;14.69;37.33;98033.69;4838390;29;102516;-68
2022/04/21 05:59:14;;;;;;;;;17.75;15.25;;;;;14.71;36.87;98035.13;4837566;29;102266;-68
2022/04/21 06:01:41;;;;;;;;;14.75;12.75;;;;;14.72;37.51;98035.97;4839398;29;102549;-68
2022/04/21 06:04:08;;;;;;;;;18.50;15.75;;;;;14.74;37.79;98036.53;4838772;29;104269;-68
2022/04/21 06:06:35;;;;;;;;;18.75;16.25;;;;;14.76;37.43;98034.41;4838349;29;102094;-68
2022/04/21 06:09:02;;;;;;;;;18.75;16.00;;;;;14.78;37.49;98032.25;4836965;29;103800;-68
2022/04/21 06:11:32;;;;;;;;;17.00;14.00;;;;;14.80;37.29;98030.13;4837541;29;102528;-68
2022/04/21 06:13:59;;;;;;;;;12.75;12.25;;;;;14.82;37.65;98038.84;4836436;29;104509;-67
2022/04/21 06:16:25;;;;;;;;;15.50;13.50;;;;;14.84;37.29;98035.91;4834595;29;102353;-68
2022/04/21 06:18:52;;;;;;;;;16.75;13.75;;;;;14.84;37.16;98036.75;4836624;29;102072;-68
2022/04/21 06:21:19;;;;;;;;;18.00;16.75;;;;;14.87;37.23;98033.53;4840039;29;102158;-68
2022/04/21 06:23:46;;;;;;;;;19.50;17.00;;;;;14.87;37.39;98032.69;4838272;29;104043;-68
2022/04/21 06:26:13;;;;;;;;;12.50;12.50;;;;;14.89;37.06;98038.72;4835661;29;103206;-68
2022/04/21 06:28:41;;;;;;;;;18.50;13.75;;;;;14.89;37.62;98036.00;4838008;29;102790;-68
2022/04/21 06:31:08;;;;;;;;;17.50;16.25;;;;;14.89;37.31;98030.56;4837974;29;102982;-68
2022/04/21 06:33:35;;;;;;;;;16.50;14.25;;;;;14.90;37.78;98027.63;4837623;29;104180;-68
2022/04/21 06:36:03;;;;;;;;;17.75;15.00;;;;;14.90;37.27;98024.91;4838103;29;102357;-68
2022/04/21 06:38:30;;;;;;;;;17.00;13.75;;;;;14.91;37.60;98036.56;4837606;29;101994;-68
2022/04/21 06:40:57;;;;;;;;;19.25;15.00;;;;;14.61;37.54;97976.94;4839300;29;102060;-68
2022/04/21 06:48:55;;;;;;;;;16.75;15.00;;;;;14.91;37.59;98018.34;4837583;29;102547;-68
2022/04/21 06:51:21;;;;;;;;;18.25;15.00;;;;;14.91;37.14;98023.78;4839403;29;102312;-68
2022/04/21 06:53:48;;;;;;;;;17.75;15.50;;;;;14.91;37.69;98023.78;4834369;29;104078;-68
2022/04/21 06:56:16;;;;;;;;;15.50;12.50;;;;;14.93;37.58;98020.84;4837593;29;102239;-68
2022/04/21 06:58:43;;;;;;;;;17.25;16.50;;;;;14.93;37.47;98024.41;4836761;29;103157;-68
2022/04/21 07:01:10;;;;;;;;;17.00;13.25;;;;;14.93;37.84;98026.28;4838264;29;103450;-68
2022/04/21 07:03:36;;;;;;;;;17.25;14.75;;;;;14.93;37.83;98029.84;4837568;29;104376;-68
2022/04/21 07:06:04;;;;;;;;;15.75;14.25;;;;;14.93;37.76;98037.19;4837513;29;102449;-68
2022/04/21 07:08:31;;;;;;;;;13.75;12.75;;;;;14.93;37.72;98029.00;4838125;29;102035;-68
2022/04/21 07:10:58;;;;;;;;;20.50;16.75;;;;;14.94;37.25;98038.84;4837739;29;102294;-68
2022/04/21 07:13:24;;;;;;;;;16.50;14.50;;;;;14.93;37.74;98040.72;4820551;29;104079;-67
2022/04/21 07:15:52;;;;;;;;;17.00;16.00;;;;;14.93;37.57;98040.72;4837743;29;102822;-68
2022/04/21 07:18:19;;;;;;;;;16.25;15.00;;;;;14.94;37.56;98045.13;4837109;29;102306;-68
2022/04/21 07:20:47;;;;;;;;;18.00;14.75;;;;;14.94;37.38;98036.94;4822156;29;102321;-68
2022/04/21 07:23:14;;;;;;;;;10.50;9.25;;;;;14.95;37.71;98035.06;4836786;29;104128;-68
2022/04/21 07:25:42;;;;;;;;;15.75;14.00;;;;;14.96;37.43;98039.41;4836912;29;104046;-68
2022/04/21 07:28:09;;;;;;;;;14.75;12.75;;;;;14.95;37.67;98044.03;4837508;29;102105;-68
2022/04/21 07:30:36;;;;;;;;;13.75;13.50;;;;;14.95;37.35;98041.28;4838330;29;102105;-68
2022/04/21 07:33:03;;;;;;;;;14.25;12.75;;;;;14.95;37.35;98045.94;4836551;29;104340;-67
2022/04/21 07:35:31;;;;;;;;;15.50;14.00;;;;;14.96;37.49;98042.13;4837943;29;102489;-68
2022/04/21 07:38:00;;;;;;;;;10.00;7.75;;;;;14.96;37.60;98045.69;4837592;29;101979;-68
2022/04/21 07:40:28;;;;;;;;;15.00;14.00;;;;;14.98;37.88;98042.72;4837708;29;102278;-67
2022/04/21 07:42:55;;;;;;;;;13.50;12.75;;;;;14.99;37.35;98044.38;4836203;29;104214;-68
2022/04/21 07:45:22;;;;;;;;;16.50;13.50;;;;;15.00;37.31;98044.13;4834036;29;102070;-68
2022/04/21 07:47:49;;;;;;;;;16.50;13.50;;;;;15.00;37.92;98038.69;4836154;29;102380;-68
2022/04/21 07:50:16;;;;;;;;;19.50;13.50;;;;;15.01;37.86;98043.06;4838914;29;102525;-68
2022/04/21 07:53:15;;;;;;;;;14.25;12.25;;;;;15.02;37.88;98039.28;4834441;29;105309;-68
2022/04/21 07:55:44;;;;;;;;;12.25;11.25;;;;;15.03;37.39;98045.56;4836724;29;102385;-68
2022/04/21 07:58:11;;;;;;;;;13.50;11.75;;;;;15.03;37.65;98057.28;4836588;29;102008;-68
2022/04/21 08:00:38;;;;;;;;;16.00;15.25;;;;;15.04;37.80;98045.28;4838423;29;102198;-68
2022/04/21 08:03:10;;;;;;;;;11.75;10.75;;;;;15.06;37.64;98054.06;4835307;29;104192;-68
2022/04/21 08:05:37;;;;;;;;;13.00;12.00;;;;;15.05;37.30;98055.13;4837794;29;102449;-68
2022/04/21 08:08:04;;;;;;;;;13.00;12.75;;;;;15.05;37.69;98057.84;4835164;29;102392;-68
2022/04/21 08:10:31;;;;;;;;;4.25;3.00;;;;;15.08;37.54;98062.78;4838410;29;102321;-68
2022/04/21 08:12:59;;;;;;;;;13.25;11.75;;;;;15.08;37.89;98065.50;4834932;29;104089;-68
2022/04/21 08:15:30;;;;;;;;;12.25;11.75;;;;;15.09;37.51;98059.00;4837541;29;101948;-67
2022/04/21 08:17:59;;;;;;;;;13.75;12.00;;;;;15.09;38.00;98053.56;4832812;29;102921;-68
2022/04/21 08:20:27;;;;;;;;;15.00;12.25;;;;;15.11;37.89;98056.03;4835551;29;102150;-68
2022/04/21 08:22:53;;;;;;;;;16.50;13.25;;;;;15.11;37.62;98051.44;4832940;29;104098;-67
2022/04/21 08:34:16;;;;;;;;;13.00;10.75;;;;;15.15;37.78;98060.75;4835698;29;104099;-68
2022/04/21 08:36:51;;;;;;;;;12.25;11.00;;;;;15.16;37.79;98048.81;4836665;29;102106;-68
2022/04/21 08:39:19;;;;;;;;;15.50;12.00;;;;;15.17;37.79;98055.88;4836416;29;101995;-67
2022/04/21 08:41:49;;;;;;;;;14.25;12.50;;;;;15.17;37.68;98050.44;4836394;29;102250;-67
2022/04/21 08:44:20;;;;;;;;;14.50;11.50;;;;;15.18;37.74;98046.66;4831052;29;104053;-68
2022/04/21 08:46:47;;;;;;;;;13.00;12.75;;;;;15.21;37.76;98045.34;4835759;29;102514;-68
2022/04/21 08:49:14;;;;;;;;;13.50;11.00;;;;;15.22;37.31;98043.47;4835022;29;103349;-68
2022/04/21 08:51:42;;;;;;;;;10.75;10.75;;;;;15.21;37.81;98039.06;4822023;29;102744;-68
2022/04/21 08:54:09;;;;;;;;;13.00;12.00;;;;;15.21;38.05;98039.06;4839261;29;104082;-68
2022/04/21 08:56:36;;;;;;;;;12.75;11.00;;;;;15.22;38.04;98043.47;4838922;29;103144;-68
2022/04/21 08:59:03;;;;;;;;;13.00;11.25;;;;;15.22;38.00;98036.09;4823310;29;102120;-68
2022/04/21 09:01:30;;;;;;;;;10.50;10.50;;;;;15.23;37.41;98040.47;4840529;29;102691;-68
2022/04/21 09:03:57;;;;;;;;;11.50;10.50;;;;;15.23;37.99;98045.91;4849880;28;104407;-68
2022/04/21 09:06:24;;;;;;;;;11.75;11.00;;;;;15.25;38.19;98045.69;4840100;29;102326;-68
2022/04/21 09:09:16;;;;;;;;;11.00;10.00;;;;;15.24;38.01;98044.03;4838960;29;102426;-67
2022/04/21 09:11:44;;;;;;;;;12.00;11.75;;;;;15.24;38.06;98047.56;4839148;29;102387;-67
2022/04/21 09:14:17;;;;;;;;;16.00;12.00;;;;;14.92;38.04;97991.97;4838464;29;104082;-68
2022/04/21 09:16:45;;;;;;;;;11.75;9.50;;;;;15.26;38.14;98047.34;4823087;29;102110;-67
2022/04/21 09:19:13;;;;;;;;;11.75;11.50;;;;;15.26;37.69;98052.78;4838506;29;102313;-68
2022/04/21 09:21:40;;;;;;;;;11.00;10.25;;;;;15.26;37.99;98048.16;4840944;29;102044;-67
2022/04/21 09:24:23;;;;;;;;;13.50;11.00;;;;;15.26;37.69;98042.72;4838644;29;104184;-67
2022/04/21 09:26:51;;;;;;;;;11.00;10.00;;;;;15.27;37.95;98036.19;4838608;29;102510;-68
2022/04/21 09:29:30;;;;;;;;;11.50;11.50;;;;;15.27;37.73;98033.47;4836164;29;102033;-68
2022/04/21 09:32:02;;;;;;;;;11.75;9.50;;;;;15.27;37.80;98038.06;4836927;29;103410;-68
2022/04/21 09:34:35;;;;;;;;;11.25;8.50;;;;;15.28;37.89;98034.28;4821623;29;104152;-67
2022/04/21 09:37:06;;;;;;;;;13.50;11.75;;;;;15.27;38.03;98038.91;4839126;29;102072;-68
2022/04/21 09:39:39;;;;;;;;;12.25;10.75;;;;;15.28;37.71;98028.84;4839475;29;102159;-67
2022/04/21 09:42:07;;;;;;;;;11.25;10.75;;;;;15.28;37.97;98029.66;4838086;29;102297;-68
2022/04/21 09:47:20;;;;;;;;;12.25;11.50;;;;;15.31;37.68;98029.16;4838159;29;102476;-67
2022/04/21 09:49:47;;;;;;;;;12.75;10.50;;;;;15.31;37.71;98034.63;4837978;29;103460;-67
2022/04/21 09:52:26;;;;;;;;;11.25;9.50;;;;;15.06;37.83;97998.75;4839325;29;102590;-67
2022/04/21 09:54:53;;;;;;;;;9.75;9.25;;;;;15.34;37.80;98038.78;4839003;29;104208;-68
2022/04/21 09:57:39;;;;;;;;;11.00;10.25;;;;;15.33;37.52;98029.78;4837211;29;102188;-68
2022/04/21 10:00:06;;;;;;;;;10.00;9.00;;;;;15.34;37.87;98036.03;4837045;29;102418;-68
2022/04/21 10:02:33;;;;;;;;;10.75;8.75;;;;;15.35;38.00;98032.25;4838308;29;103311;-68
2022/04/21 10:05:00;;;;;;;;;11.25;9.75;;;;;15.20;37.44;98005.56;4822945;29;104592;-67
2022/04/21 10:07:27;;;;;;;;;9.50;8.25;;;;;15.36;37.65;98020.25;4840620;29;102268;-68
2022/04/21 10:09:57;;;;;;;;;9.00;9.00;;;;;15.08;37.50;97969.41;4839335;29;102887;-67
2022/04/21 10:12:23;;;;;;;;;9.25;8.50;;;;;15.37;38.05;98016.47;4843252;29;102802;-68
2022/04/21 10:14:51;;;;;;;;;9.50;8.50;;;;;15.38;37.69;98015.41;4838476;29;104103;-68
2022/04/21 10:17:19;;;;;;;;;10.00;9.25;;;;;15.38;37.62;98013.50;4836006;29;102071;-68
2022/04/21 10:19:50;;;;;;;;;9.25;8.50;;;;;15.40;37.75;98005.09;4836596;29;102293;-67
2022/04/21 10:22:24;;;;;;;;;9.25;8.50;;;;;15.41;37.66;98004.00;4822720;29;102123;-67
2022/04/21 10:24:54;;;;;;;;;12.00;8.75;;;;;15.41;37.63;98001.28;4820718;29;104079;-68
2022/04/21 10:27:53;;;;;;;;;7.50;7.50;;;;;15.43;37.70;98010.88;4838067;29;102339;-68
2022/04/21 10:30:21;;;;;;;;;9.75;9.50;;;;;15.45;38.03;98007.88;4817381;29;102474;-68
2022/04/21 10:32:53;;;;;;;;;10.25;9.00;;;;;15.46;37.55;98009.56;4820779;29;104189;-67
2022/04/21 10:35:41;;;;;;;;;9.00;9.00;;;;;15.47;37.64;98003.03;4836579;29;104085;-68
2022/04/21 10:38:14;;;;;;;;;9.50;9.00;;;;;15.48;37.63;98002.78;4815027;29;102370;-67
2022/04/21 10:41:13;;;;;;;;;8.75;8.75;;;;;15.49;37.67;98000.91;4837581;29;102427;-68
2022/04/21 10:44:00;;;;;;;;;7.50;7.50;;;;;15.51;37.69;98001.50;4781728;29;102291;-68
2022/04/21 10:46:29;;;;;;;;;9.00;7.50;;;;;15.52;38.00;98005.88;4834515;29;104758;-68
2022/04/21 10:48:58;;;;;;;;;9.75;8.00;;;;;15.53;37.61;97989.28;4836145;29;102428;-68
2022/04/21 10:57:15;;;;;;;;;8.00;7.75;;;;;15.57;37.76;98000.53;4836844;29;104068;-66
2022/04/21 10:59:50;;;;;;;;;12.50;10.25;;;;;15.58;37.68;97999.41;4838795;29;102265;-68
2022/04/21 11:02:17;;;;;;;;;9.00;8.00;;;;;15.59;37.57;97995.63;4834142;29;103050;-68
2022/04/21 11:04:44;;;;;;;;;10.50;9.75;;;;;15.60;37.66;98000.84;4837693;29;103651;-68
2022/04/21 11:07:12;;;;;;;;;7.25;7.00;;;;;15.60;37.67;97992.66;4821321;29;104008;-68
2022/04/21 11:09:42;;;;;;;;;6.75;6.25;;;;;15.62;37.56;97995.16;4836658;29;103184;-68
2022/04/21 11:12:43;;;;;;;;;8.00;7.00;;;;;15.64;37.63;97998.44;4830520;29;102208;-68
2022/04/21 11:15:29;;;;;;;;;9.25;9.00;;;;;15.65;37.27;97996.53;4837725;29;102613;-68
2022/04/21 11:18:12;;;;;;;;;9.00;8.00;;;;;15.65;37.38;97996.53;4835743;29;104009;-68
2022/04/21 11:20:40;;;;;;;;;8.25;7.00;;;;;15.67;37.34;97999.88;4837538;29;102612;-68
2022/04/21 11:23:21;;;;;;;;;8.25;8.00;;;;;15.66;37.38;97999.03;4838208;29;102170;-68
2022/04/21 11:25:48;;;;;;;;;7.75;7.50;;;;;15.67;37.36;97995.22;4837147;29;102378;-68
2022/04/21 11:28:23;;;;;;;;;8.25;7.00;;;;;15.67;37.50;97995.22;4835183;29;104200;-68
2022/04/21 11:31:04;;;;;;;;;8.00;7.00;;;;;15.67;37.58;97989.75;4837310;29;102107;-68
2022/04/21 11:33:31;;;;;;;;;6.50;6.50;;;;;15.67;37.58;98003.38;4837735;29;102031;-68
2022/04/21 11:36:06;;;;;;;;;7.75;7.00;;;;;15.67;37.55;97989.75;4838071;29;102308;-68
2022/04/21 11:38:33;;;;;;;;;7.50;6.50;;;;;15.66;37.78;97988.13;4837463;29;104083;-69
2022/04/21 11:41:04;;;;;;;;;8.00;8.00;;;;;15.68;37.61;97993.31;4837076;29;102774;-68
2022/04/21 11:43:31;;;;;;;;;9.75;9.00;;;;;15.67;37.85;97981.59;4836275;29;101993;-68
2022/04/21 11:46:01;;;;;;;;;7.00;6.00;;;;;15.68;37.59;97985.97;4838095;29;102167;-68
2022/04/21 11:48:30;;;;;;;;;11.00;8.50;;;;;15.70;37.52;97991.19;4815575;29;104223;-68
2022/04/21 11:50:58;;;;;;;;;9.50;8.00;;;;;15.69;37.50;97987.63;4817545;29;102115;-68
2022/04/21 11:53:27;;;;;;;;;8.75;8.00;;;;;15.71;37.57;97988.22;4818494;29;102127;-68
2022/04/21 11:55:54;;;;;;;;;6.50;6.00;;;;;15.72;37.58;97991.75;4817611;29;102548;-68
2022/04/21 11:58:34;;;;;;;;;7.25;6.75;;;;;15.72;37.72;97984.38;4817731;29;104202;-68
2022/04/21 12:06:45;;;;;;;;;6.00;6.00;;;;;15.72;37.78;97991.75;4819335;29;102099;-68
2022/04/21 12:09:28;;;;;;;;;6.00;6.00;;;;;15.72;37.83;97986.28;4818203;29;104002;-68
2022/04/21 12:11:57;;;;;;;;;7.00;6.50;;;;;15.74;37.57;97989.59;4816687;29;102050;-68
2022/04/21 12:14:25;;;;;;;;;8.00;6.00;;;;;15.74;37.65;97989.59;4818040;29;102265;-69
2022/04/21 12:16:53;;;;;;;;;9.00;7.00;;;;;15.72;37.65;97984.38;4819663;29;102300;-68
2022/04/21 12:19:39;;;;;;;;;8.00;7.00;;;;;15.74;37.67;97978.69;4817590;29;104103;-68
2022/04/21 12:22:19;;;;;;;;;6.00;6.00;;;;;15.73;37.60;97982.50;4816951;29;102131;-68